createdAt,value
2019-03-17T04:02:15.728Z,8.60
2019-03-17T04:04:44.299Z,9.00
2019-03-17T04:07:12.878Z,8.47
2019-03-17T04:09:41.454Z,8.73
2019-03-17T04:12:10.019Z,8.70
2019-03-17T04:14:38.611Z,8.80
2019-03-17T04:17:07.511Z,8.93
2019-03-17T04:19:36.067Z,9.03
2019-03-17T04:22:04.667Z,9.10
2019-03-17T04:24:33.226Z,8.63
2019-03-17T04:27:01.807Z,8.70
2019-03-17T04:29:30.368Z,9.70
2019-03-17T04:31:59.187Z,9.47
2019-03-17T04:34:27.772Z,9.43
2019-03-17T04:36:56.375Z,8.97
2019-03-17T04:39:25.296Z,9.20
2019-03-17T04:41:53.926Z,9.40
2019-03-17T04:44:22.839Z,8.90
2019-03-17T04:46:51.413Z,9.23
2019-03-17T04:49:20.319Z,9.30
2019-03-17T04:51:48.910Z,9.37
2019-03-17T04:54:17.506Z,9.47
2019-03-17T04:56:46.070Z,9.03
2019-03-17T04:59:14.659Z,10.30
2019-03-17T05:01:43.290Z,9.37
2019-03-17T05:04:12.126Z,9.47
2019-03-17T05:06:52.125Z,9.27
2019-03-17T05:09:11.298Z,9.77
2019-03-17T05:11:39.882Z,8.77
2019-03-17T05:14:08.463Z,10.13
2019-03-17T05:16:37.063Z,9.90
2019-03-17T05:19:05.619Z,9.10
2019-03-17T05:21:34.179Z,8.90
2019-03-17T05:24:03.103Z,8.87
2019-03-17T05:26:32.014Z,9.60
2019-03-17T05:29:00.582Z,8.30
2019-03-17T05:31:29.232Z,8.90
2019-03-17T05:33:57.826Z,9.13
2019-03-17T05:36:27.260Z,8.73
2019-03-17T05:38:56.066Z,8.93
2019-03-17T05:41:24.626Z,8.83
2019-03-17T05:43:53.191Z,8.50
2019-03-17T05:46:21.776Z,9.47
2019-03-17T05:48:50.431Z,8.83
2019-03-17T05:51:19.019Z,8.57
2019-03-17T05:53:47.890Z,9.10
2019-03-17T05:56:16.458Z,8.07
2019-03-17T05:58:45.333Z,8.70
2019-03-17T06:01:13.915Z,9.13
2019-03-17T06:03:42.506Z,8.60
2019-03-17T06:06:11.078Z,8.33
2019-03-17T06:08:39.653Z,9.67
2019-03-17T06:11:08.554Z,8.50
2019-03-17T06:13:37.151Z,9.53
2019-03-17T06:16:05.726Z,8.30
2019-03-17T06:18:34.299Z,8.47
2019-03-17T06:21:02.887Z,9.07
2019-03-17T06:23:31.518Z,9.77
2019-03-17T06:26:00.074Z,9.00
2019-03-17T06:28:28.654Z,8.20
2019-03-17T06:30:57.206Z,7.90
2019-03-17T06:33:25.797Z,7.83
2019-03-17T06:35:54.690Z,8.10
2019-03-17T06:38:23.246Z,8.07
2019-03-17T06:40:51.834Z,8.90
2019-03-17T06:43:20.395Z,7.97
2019-03-17T06:45:48.975Z,7.40
2019-03-17T06:48:17.530Z,9.03
2019-03-17T06:50:46.090Z,9.50
2019-03-17T06:53:14.714Z,9.17
2019-03-17T06:55:43.551Z,8.63
2019-03-17T06:58:12.129Z,9.23
2019-03-17T07:00:40.696Z,7.33
2019-03-17T07:03:09.531Z,7.03
2019-03-17T07:05:38.104Z,7.23
2019-03-17T07:08:06.731Z,6.93
2019-03-17T07:10:35.619Z,6.67
2019-03-17T07:13:04.206Z,6.33
2019-03-17T07:15:32.746Z,5.73
2019-03-17T07:18:01.323Z,6.23
2019-03-17T07:20:29.886Z,5.63
2019-03-17T07:22:58.464Z,5.63
2019-03-17T07:25:27.167Z,5.33
2019-03-17T07:27:55.814Z,6.00
2019-03-17T07:30:24.394Z,6.70
2019-03-17T07:32:52.951Z,5.90
2019-03-17T07:35:21.531Z,6.50
2019-03-17T07:37:56.838Z,6.00
2019-03-17T07:40:21.489Z,6.67
2019-03-17T07:42:50.155Z,6.50
2019-03-17T07:45:18.722Z,6.40
2019-03-17T07:47:47.327Z,6.17
2019-03-17T07:50:15.886Z,5.63
2019-03-17T07:52:44.442Z,6.20
2019-03-17T07:55:13.021Z,6.90
2019-03-17T07:57:41.589Z,6.23
2019-03-17T08:00:10.183Z,6.13
2019-03-17T08:02:38.749Z,6.07
2019-03-17T08:05:07.457Z,4.77
2019-03-17T08:07:36.006Z,4.63
2019-03-17T08:10:04.742Z,4.73
2019-03-17T08:12:34.192Z,4.60
2019-03-17T08:15:02.754Z,4.07
2019-03-17T08:17:31.427Z,5.17
2019-03-17T08:19:59.999Z,5.40
2019-03-17T08:22:28.562Z,3.87
2019-03-17T08:24:57.146Z,4.15
2019-03-17T08:27:25.718Z,3.33
2019-03-17T08:29:54.645Z,2.90
2019-03-17T08:32:23.223Z,3.47
2019-03-17T08:34:52.115Z,3.80
2019-03-17T08:37:20.701Z,3.72
2019-03-17T08:39:49.589Z,3.85
2019-03-17T08:42:18.482Z,3.90
2019-03-17T08:44:47.076Z,4.65
2019-03-17T08:47:15.638Z,4.87
2019-03-17T08:49:44.239Z,4.12
2019-03-17T08:52:12.813Z,3.15
2019-03-17T08:54:41.378Z,3.00
2019-03-17T08:57:10.000Z,2.65
2019-03-17T08:59:38.576Z,2.45
2019-03-17T09:02:07.154Z,2.80
2019-03-17T09:04:35.723Z,2.30
2019-03-17T09:07:04.615Z,2.60
2019-03-17T09:09:33.203Z,2.55
2019-03-17T09:12:01.781Z,3.45
2019-03-17T09:14:30.415Z,3.15
2019-03-17T09:16:58.977Z,2.90
2019-03-17T09:19:28.038Z,2.58
2019-03-17T09:21:56.942Z,2.72
2019-03-17T09:24:25.538Z,2.58
2019-03-17T09:26:54.127Z,3.08
2019-03-17T09:29:22.688Z,2.80
2019-03-17T09:31:51.575Z,3.02
2019-03-17T09:34:20.461Z,2.65
2019-03-17T09:36:49.032Z,2.87
2019-03-17T09:39:17.627Z,2.60
2019-03-17T09:41:46.249Z,3.27
2019-03-17T09:44:14.815Z,2.70
2019-03-17T09:46:43.692Z,3.30
2019-03-17T09:49:12.578Z,3.12
2019-03-17T09:51:41.159Z,2.35
2019-03-17T09:54:09.742Z,1.87
2019-03-17T09:56:38.391Z,1.80
2019-03-17T09:59:06.970Z,1.72
2019-03-17T10:01:35.598Z,1.45
2019-03-17T10:04:04.202Z,1.60
2019-03-17T10:06:32.770Z,1.77
2019-03-17T10:09:02.324Z,1.70
2019-03-17T10:11:31.254Z,2.05
2019-03-17T10:13:59.863Z,2.33
2019-03-17T10:16:28.598Z,1.42
2019-03-17T10:18:58.322Z,1.77
2019-03-17T10:21:27.332Z,1.50
2019-03-17T10:23:55.946Z,1.85
2019-03-17T10:26:24.546Z,1.62
2019-03-17T10:28:53.127Z,1.10
2019-03-17T10:31:21.691Z,1.00
2019-03-17T10:33:50.538Z,1.00
2019-03-17T10:36:19.132Z,1.02
2019-03-17T10:38:47.750Z,0.80
2019-03-17T10:41:16.347Z,1.10
2019-03-17T10:43:45.015Z,0.80
2019-03-17T10:46:13.676Z,1.10
2019-03-17T10:48:42.272Z,1.02
2019-03-17T10:51:10.834Z,1.07
2019-03-17T10:53:39.460Z,1.00
2019-03-17T10:56:08.102Z,0.88
2019-03-17T10:58:36.687Z,1.20
2019-03-17T11:01:05.268Z,0.90
2019-03-17T11:03:33.842Z,1.00
2019-03-17T11:06:02.435Z,1.10
2019-03-17T11:08:31.318Z,0.82
2019-03-17T11:11:00.214Z,1.02
2019-03-17T11:13:29.176Z,0.80
2019-03-17T11:15:57.838Z,0.75
2019-03-17T11:18:26.515Z,1.20
2019-03-17T11:20:55.167Z,1.00
2019-03-17T11:23:24.115Z,1.00
2019-03-17T11:25:52.849Z,1.15
2019-03-17T11:28:21.520Z,1.00
2019-03-17T11:30:57.348Z,1.17
2019-03-17T11:33:26.086Z,1.25
2019-03-17T11:35:54.658Z,0.82
2019-03-17T11:38:23.671Z,1.05
2019-03-17T11:40:52.592Z,1.20
2019-03-17T11:43:21.196Z,1.00
2019-03-17T11:45:49.830Z,1.00
2019-03-17T11:48:18.399Z,1.00
2019-03-17T11:50:47.002Z,0.97
2019-03-17T11:53:15.872Z,1.30
2019-03-17T11:55:44.506Z,1.00
2019-03-17T11:58:13.275Z,0.97
2019-03-17T12:00:42.199Z,1.23
2019-03-17T12:03:10.787Z,1.17
2019-03-17T12:05:41.557Z,1.30
2019-03-17T12:08:10.230Z,1.20
2019-03-17T12:10:38.830Z,1.07
2019-03-17T12:13:07.394Z,1.20
2019-03-17T12:15:36.022Z,4.30
2019-03-17T12:18:04.890Z,11.47
2019-03-17T12:20:33.506Z,2.80
2019-03-17T12:23:02.590Z,1.50
2019-03-17T12:25:31.160Z,1.70
2019-03-17T12:27:59.730Z,1.20
2019-03-17T12:30:28.324Z,1.60
2019-03-17T12:32:56.905Z,1.43
2019-03-17T12:35:25.494Z,1.30
2019-03-17T12:37:54.154Z,1.43
2019-03-17T12:40:22.834Z,1.30
2019-03-17T12:42:51.526Z,1.47
2019-03-17T12:45:20.123Z,1.50
2019-03-17T12:47:48.710Z,1.20
2019-03-17T12:50:17.429Z,1.13
2019-03-17T12:52:46.539Z,1.60
2019-03-17T12:55:15.133Z,1.23
2019-03-17T12:57:43.730Z,1.27
2019-03-17T13:00:14.333Z,1.53
2019-03-17T13:02:43.044Z,1.50
2019-03-17T13:05:11.910Z,1.43
2019-03-17T13:07:40.627Z,1.23
2019-03-17T13:10:15.878Z,1.27
2019-03-17T13:12:41.687Z,1.67
2019-03-17T13:15:10.378Z,1.43
2019-03-17T13:17:39.095Z,1.30
2019-03-17T13:20:08.630Z,1.80
2019-03-17T13:22:37.202Z,1.40
2019-03-17T13:25:05.833Z,1.40
2019-03-17T13:27:34.510Z,1.53
2019-03-17T13:30:03.430Z,1.50
2019-03-17T13:32:32.025Z,1.30
2019-03-17T13:35:00.958Z,1.40
2019-03-17T13:37:29.566Z,1.20
2019-03-17T13:40:01.124Z,1.40
2019-03-17T13:42:34.087Z,1.37
2019-03-17T13:45:02.704Z,1.40
2019-03-17T13:47:31.262Z,1.20
2019-03-17T13:50:00.056Z,1.27
2019-03-17T13:52:28.618Z,1.27
2019-03-17T13:54:57.221Z,1.30
2019-03-17T13:57:27.258Z,1.70
2019-03-17T13:59:55.899Z,1.37
2019-03-17T14:02:24.859Z,1.33
2019-03-17T14:04:53.427Z,5.10
2019-03-17T14:07:22.103Z,2.53
2019-03-17T14:09:50.691Z,2.20
2019-03-17T14:12:19.654Z,2.07
2019-03-17T14:14:48.578Z,2.10
2019-03-17T14:17:17.541Z,2.03
2019-03-17T14:19:46.167Z,1.50
2019-03-17T14:22:14.969Z,2.10
2019-03-17T14:24:43.635Z,1.93
2019-03-17T14:27:12.326Z,2.00
2019-03-17T14:29:41.090Z,2.00
2019-03-17T14:32:09.920Z,1.60
2019-03-17T14:34:38.612Z,1.40
2019-03-17T14:37:07.221Z,1.67
2019-03-17T14:39:36.162Z,3.50
2019-03-17T14:42:04.803Z,7.47
2019-03-17T14:44:34.225Z,8.03
2019-03-17T14:47:02.901Z,5.13
2019-03-17T14:49:31.783Z,2.60
2019-03-17T14:52:01.437Z,1.93
2019-03-17T14:54:30.206Z,2.30
2019-03-17T14:56:58.962Z,2.23
2019-03-17T14:59:28.123Z,1.97
2019-03-17T15:01:56.847Z,2.80
2019-03-17T15:04:25.503Z,2.20
2019-03-17T15:06:54.811Z,1.90
2019-03-17T15:09:24.367Z,1.97
2019-03-17T15:11:53.062Z,2.03
2019-03-17T15:14:21.702Z,1.93
2019-03-17T15:16:50.365Z,2.10
2019-03-17T15:19:18.989Z,2.07
2019-03-17T15:21:47.619Z,2.20
2019-03-17T15:24:16.298Z,2.10
2019-03-17T15:26:45.041Z,2.20
2019-03-17T15:29:13.765Z,2.10
2019-03-17T15:31:42.396Z,2.00
2019-03-17T15:34:11.328Z,1.90
2019-03-17T15:36:39.947Z,2.20
2019-03-17T15:39:08.735Z,1.77
2019-03-17T15:41:37.407Z,2.77
2019-03-17T15:44:06.046Z,2.20
2019-03-17T15:46:34.610Z,1.90
2019-03-17T15:49:03.730Z,2.10
2019-03-17T15:51:32.406Z,1.70
2019-03-17T15:54:00.991Z,2.27
2019-03-17T15:56:30.379Z,2.07
2019-03-17T15:58:59.581Z,2.60
2019-03-17T16:01:28.498Z,3.20
2019-03-17T16:03:57.174Z,2.30
2019-03-17T16:06:25.965Z,2.20
2019-03-17T16:08:54.565Z,2.30
2019-03-17T16:11:31.010Z,2.53
2019-03-17T16:13:53.595Z,1.63
2019-03-17T16:16:22.801Z,1.10
2019-03-17T16:18:51.375Z,0.73
2019-03-17T16:21:20.069Z,1.00
2019-03-17T16:23:49.322Z,0.47
2019-03-17T16:26:17.947Z,0.30
2019-03-17T16:28:46.580Z,0.40
2019-03-17T16:31:15.230Z,0.50
2019-03-17T16:33:44.154Z,0.40
2019-03-17T16:36:12.758Z,0.43
2019-03-17T16:38:41.466Z,0.50
2019-03-17T16:41:12.091Z,0.70
2019-03-17T16:43:41.095Z,0.50
2019-03-17T16:46:09.746Z,0.67
2019-03-17T16:48:38.493Z,0.70
2019-03-17T16:51:07.089Z,0.70
2019-03-17T16:53:35.667Z,0.50
2019-03-17T16:56:04.275Z,0.70
2019-03-17T16:58:32.859Z,0.70
2019-03-17T17:01:01.591Z,0.70
2019-03-17T17:03:30.217Z,0.90
2019-03-17T17:05:58.795Z,0.50
2019-03-17T17:08:27.370Z,0.60
2019-03-17T17:10:56.039Z,0.60
2019-03-17T17:13:24.599Z,0.63
2019-03-17T17:15:53.461Z,1.00
2019-03-17T17:18:22.041Z,1.00
2019-03-17T17:20:50.618Z,0.87
2019-03-17T17:23:19.402Z,0.50
2019-03-17T17:25:47.980Z,0.60
2019-03-17T17:28:16.586Z,0.50
2019-03-17T17:30:45.154Z,0.70
2019-03-17T17:33:13.706Z,1.00
2019-03-17T17:35:42.283Z,0.70
2019-03-17T17:38:10.839Z,0.57
2019-03-17T17:40:39.424Z,0.70
2019-03-17T17:43:07.986Z,0.60
2019-03-17T17:45:36.643Z,0.80
2019-03-17T17:48:05.225Z,0.90
2019-03-17T17:50:33.822Z,0.70
2019-03-17T17:53:02.799Z,0.60
2019-03-17T17:55:31.390Z,0.50
2019-03-17T17:57:59.966Z,0.50
2019-03-17T18:00:30.799Z,0.50
2019-03-17T18:03:00.125Z,0.73
2019-03-17T18:05:28.805Z,0.53
2019-03-17T18:07:57.731Z,0.50
2019-03-17T18:10:26.563Z,0.50
2019-03-17T18:12:55.197Z,0.77
2019-03-17T18:15:24.149Z,0.93
2019-03-17T18:17:54.172Z,0.80
2019-03-17T18:20:23.188Z,0.60
2019-03-17T18:22:52.665Z,0.70
2019-03-17T18:25:21.248Z,0.60
2019-03-17T18:27:49.821Z,0.70
2019-03-17T18:30:18.404Z,0.80
2019-03-17T18:32:46.982Z,2.87
2019-03-17T18:35:15.595Z,1.27
2019-03-17T18:37:44.173Z,0.80
2019-03-17T18:40:13.539Z,0.80
2019-03-17T18:42:42.485Z,0.90
2019-03-17T18:45:13.120Z,0.93
2019-03-17T18:47:41.782Z,0.90
2019-03-17T18:50:19.364Z,1.00
2019-03-17T18:53:00.214Z,0.93
2019-03-17T18:55:28.809Z,0.93
2019-03-17T18:57:57.386Z,0.80
2019-03-17T19:00:25.947Z,1.00
2019-03-17T19:02:54.550Z,0.83
2019-03-17T19:05:23.099Z,0.90
2019-03-17T19:07:51.830Z,1.30
2019-03-17T19:10:20.458Z,1.10
2019-03-17T19:12:49.091Z,1.17
2019-03-17T19:15:17.738Z,1.40
2019-03-17T19:17:46.310Z,1.07
2019-03-17T19:20:15.472Z,1.37
2019-03-17T19:22:44.226Z,0.83
2019-03-17T19:25:13.706Z,1.30
2019-03-17T19:27:42.294Z,1.13
2019-03-17T19:30:12.186Z,1.17
2019-03-17T19:32:41.469Z,1.23
2019-03-17T19:35:10.336Z,1.73
2019-03-17T19:37:39.215Z,1.40
2019-03-17T19:40:08.798Z,1.03
2019-03-17T19:42:37.715Z,1.20
2019-03-17T19:45:06.458Z,1.43
2019-03-17T19:47:35.091Z,1.27
2019-03-17T19:50:03.714Z,1.40
2019-03-17T19:52:32.290Z,0.90
2019-03-17T19:55:01.236Z,1.10
2019-03-17T19:57:31.195Z,0.90
2019-03-17T19:59:59.883Z,1.00
2019-03-17T20:02:28.471Z,1.10
2019-03-17T20:04:57.318Z,1.00
2019-03-17T20:07:25.879Z,1.10
2019-03-17T20:09:55.236Z,1.10
2019-03-17T20:12:23.938Z,2.07
2019-03-17T20:14:52.676Z,1.00
2019-03-17T20:17:21.275Z,1.20
2019-03-17T20:19:50.443Z,1.30
2019-03-17T20:22:19.774Z,1.10
2019-03-17T20:24:48.807Z,1.20
2019-03-17T20:27:17.371Z,0.83
2019-03-17T20:29:45.962Z,1.17
2019-03-17T20:32:14.551Z,1.50
2019-03-17T20:34:43.246Z,1.00
2019-03-17T20:37:31.146Z,1.07
2019-03-17T20:39:59.822Z,0.97
2019-03-17T20:42:28.493Z,1.40
2019-03-17T20:44:57.482Z,1.23
2019-03-17T20:47:26.401Z,0.93
2019-03-17T20:49:54.954Z,1.37
2019-03-17T20:52:23.875Z,1.40
2019-03-17T20:54:52.434Z,1.37
2019-03-17T20:57:21.167Z,1.20
2019-03-17T20:59:49.746Z,1.40
2019-03-17T21:02:18.843Z,1.00
2019-03-17T21:04:48.044Z,1.00
2019-03-17T21:07:17.061Z,1.03
2019-03-17T21:09:46.067Z,1.10
2019-03-17T21:12:14.639Z,1.40
2019-03-17T21:14:43.194Z,0.90
2019-03-17T21:17:14.073Z,1.40
2019-03-17T21:19:42.050Z,1.07
2019-03-17T21:22:10.926Z,1.00
2019-03-17T21:24:39.500Z,1.10
2019-03-17T21:27:08.073Z,1.00
2019-03-17T21:29:36.659Z,1.33
2019-03-17T21:32:05.566Z,1.43
2019-03-17T21:34:34.454Z,1.07
2019-03-17T21:37:03.067Z,1.17
2019-03-17T21:39:31.930Z,1.00
2019-03-17T21:42:00.502Z,1.00
2019-03-17T21:44:29.407Z,1.20
2019-03-17T21:46:57.993Z,1.60
2019-03-17T21:49:26.561Z,1.07
2019-03-17T21:51:55.110Z,1.27
2019-03-17T21:54:23.761Z,1.33
2019-03-17T21:56:52.322Z,1.27
2019-03-17T21:59:20.882Z,1.20
2019-03-17T22:01:49.454Z,1.40
2019-03-17T22:04:18.074Z,1.40
2019-03-17T22:06:46.681Z,0.90
2019-03-17T22:09:17.371Z,1.27
2019-03-17T22:11:45.533Z,1.30
2019-03-17T22:14:14.124Z,1.40
2019-03-17T22:16:43.026Z,1.20
2019-03-17T22:19:11.603Z,1.50
2019-03-17T22:21:40.158Z,1.40
2019-03-17T22:24:08.706Z,1.50
2019-03-17T22:26:37.330Z,1.37
2019-03-17T22:29:05.886Z,1.20
2019-03-17T22:31:34.472Z,1.63
2019-03-17T22:34:03.300Z,2.50
2019-03-17T22:36:31.854Z,1.30
2019-03-17T22:39:00.674Z,1.60
2019-03-17T22:41:29.267Z,1.73
2019-03-17T22:43:57.930Z,1.40
2019-03-17T22:46:26.942Z,1.80
2019-03-17T22:48:55.499Z,1.57
2019-03-17T22:51:24.142Z,1.47
2019-03-17T22:53:52.700Z,1.57
2019-03-17T22:56:21.610Z,1.63
2019-03-17T22:58:50.291Z,1.43
